N808JB KFTY-KJQF
Flight info
| Callsign | N808JB |
|---|---|
| Flight time | 0h 57m |
| Altitude | 13000 |
| Route | KFTY AHN ELW UNARM HUSTN RNAV 2R |
| Aircraft | SF50/L-V/N |
Departure
| Time | 2026-05-08 13:57 |
|---|---|
| Airport | Fulton County Airport Brown Field (KFTY) |
Arrival
| Time | 2026-05-08 14:54 |
|---|---|
| Airport | Concord-Padgett Regional Airport (KJQF) |
| Time | Latitude | Longitude | Altitude | Speed | Heading |
|---|---|---|---|---|---|
| 2026-05-08 13:38 | 33.77733 | -84.52343 | 812 ft | 0 kts | 118° |
| 2026-05-08 13:50 | 33.77733 | -84.52342 | 812 ft | 0 kts | 103° |
| 2026-05-08 13:50 | 33.77733 | -84.52341 | 812 ft | 0 kts | 47° |
| 2026-05-08 13:51 | 33.77737 | -84.52338 | 812 ft | 1 kts | 25° |
| 2026-05-08 13:51 | 33.77745 | -84.52332 | 812 ft | 3 kts | 31° |
| 2026-05-08 13:51 | 33.77755 | -84.52325 | 812 ft | 4 kts | 34° |
| 2026-05-08 13:51 | 33.77783 | -84.52292 | 812 ft | 6 kts | 56° |
| 2026-05-08 13:52 | 33.77803 | -84.52241 | 814 ft | 5 kts | 68° |
| 2026-05-08 13:52 | 33.77821 | -84.52217 | 814 ft | 3 kts | 27° |
| 2026-05-08 13:52 | 33.77857 | -84.52217 | 812 ft | 6 kts | 350° |
| 2026-05-08 13:52 | 33.77883 | -84.52197 | 812 ft | 4 kts | 78° |
| 2026-05-08 13:53 | 33.77889 | -84.52154 | 812 ft | 7 kts | 78° |
| 2026-05-08 13:53 | 33.77903 | -84.52070 | 813 ft | 12 kts | 80° |
| 2026-05-08 13:53 | 33.77920 | -84.51943 | 816 ft | 15 kts | 78° |
| 2026-05-08 13:53 | 33.77938 | -84.51826 | 815 ft | 13 kts | 78° |
| 2026-05-08 13:54 | 33.77956 | -84.51718 | 815 ft | 13 kts | 80° |
| 2026-05-08 13:54 | 33.77974 | -84.51596 | 815 ft | 16 kts | 80° |
| 2026-05-08 13:54 | 33.77994 | -84.51458 | 812 ft | 17 kts | 79° |
| 2026-05-08 13:54 | 33.78010 | -84.51344 | 808 ft | 12 kts | 81° |
| 2026-05-08 13:55 | 33.78026 | -84.51249 | 804 ft | 10 kts | 80° |
| 2026-05-08 13:55 | 33.78064 | -84.51159 | 798 ft | 11 kts | 53° |
| 2026-05-08 13:55 | 33.78138 | -84.51138 | 793 ft | 8 kts | 328° |
| 2026-05-08 13:56 | 33.78147 | -84.51170 | 794 ft | 0 kts | 263° |
| 2026-05-08 13:56 | 33.78147 | -84.51173 | 794 ft | 5 kts | 266° |
| 2026-05-08 13:56 | 33.78122 | -84.51351 | 802 ft | 38 kts | 259° |
| 2026-05-08 13:57 | 33.78032 | -84.51935 | 818 ft | 99 kts | 258° |
| 2026-05-08 13:57 | 33.77888 | -84.52825 | 1143 ft | 117 kts | 260° |
| 2026-05-08 13:57 | 33.77743 | -84.53819 | 1643 ft | 128 kts | 259° |
| 2026-05-08 13:57 | 33.77579 | -84.54874 | 2217 ft | 132 kts | 260° |
| 2026-05-08 13:58 | 33.77402 | -84.55978 | 2772 ft | 139 kts | 259° |
| 2026-05-08 13:58 | 33.77217 | -84.57117 | 3349 ft | 142 kts | 260° |
| 2026-05-08 13:58 | 33.77190 | -84.58238 | 3960 ft | 137 kts | 292° |
| 2026-05-08 13:58 | 33.77785 | -84.59044 | 4580 ft | 131 kts | 334° |
| 2026-05-08 13:59 | 33.78664 | -84.59101 | 5138 ft | 134 kts | 17° |
| 2026-05-08 13:59 | 33.79390 | -84.58385 | 5672 ft | 141 kts | 43° |
| 2026-05-08 13:59 | 33.80046 | -84.57482 | 6123 ft | 151 kts | 44° |
| 2026-05-08 13:59 | 33.80587 | -84.56384 | 6686 ft | 159 kts | 79° |
| 2026-05-08 14:00 | 33.80669 | -84.55051 | 7244 ft | 163 kts | 84° |
| 2026-05-08 14:00 | 33.80725 | -84.53688 | 7785 ft | 166 kts | 84° |
| 2026-05-08 14:00 | 33.80776 | -84.52309 | 8328 ft | 169 kts | 84° |
| 2026-05-08 14:00 | 33.80825 | -84.50884 | 8815 ft | 175 kts | 84° |
| 2026-05-08 14:01 | 33.80874 | -84.49410 | 9327 ft | 180 kts | 84° |
| 2026-05-08 14:01 | 33.80921 | -84.47891 | 9842 ft | 184 kts | 84° |
| 2026-05-08 14:01 | 33.80972 | -84.46350 | 10356 ft | 187 kts | 84° |
| 2026-05-08 14:01 | 33.81025 | -84.44780 | 10825 ft | 192 kts | 84° |
| 2026-05-08 14:02 | 33.81076 | -84.43077 | 10979 ft | 221 kts | 84° |
| 2026-05-08 14:02 | 33.81204 | -84.41110 | 11011 ft | 252 kts | 80° |
| 2026-05-08 14:02 | 33.81430 | -84.38885 | 11007 ft | 278 kts | 80° |
| 2026-05-08 14:02 | 33.81678 | -84.36494 | 11001 ft | 297 kts | 80° |
| 2026-05-08 14:03 | 33.81930 | -84.34047 | 10982 ft | 298 kts | 81° |
| 2026-05-08 14:03 | 33.82188 | -84.31568 | 10973 ft | 295 kts | 80° |
| 2026-05-08 14:03 | 33.82439 | -84.29136 | 10967 ft | 291 kts | 81° |
| 2026-05-08 14:03 | 33.82690 | -84.26739 | 10973 ft | 288 kts | 81° |
| 2026-05-08 14:04 | 33.82935 | -84.24371 | 10973 ft | 286 kts | 81° |
| 2026-05-08 14:04 | 33.83182 | -84.21989 | 10969 ft | 284 kts | 80° |
| 2026-05-08 14:04 | 33.83424 | -84.19645 | 10970 ft | 283 kts | 81° |
| 2026-05-08 14:04 | 33.83666 | -84.17293 | 10973 ft | 283 kts | 81° |
| 2026-05-08 14:05 | 33.83904 | -84.14969 | 10970 ft | 283 kts | 81° |
| 2026-05-08 14:05 | 33.84149 | -84.12601 | 10985 ft | 283 kts | 81° |
| 2026-05-08 14:05 | 33.84384 | -84.10285 | 10972 ft | 282 kts | 81° |
| 2026-05-08 14:05 | 33.84624 | -84.07946 | 10971 ft | 282 kts | 81° |
| 2026-05-08 14:06 | 33.84863 | -84.05597 | 10976 ft | 282 kts | 80° |
| 2026-05-08 14:06 | 33.85103 | -84.03258 | 10978 ft | 282 kts | 80° |
| 2026-05-08 14:06 | 33.85342 | -84.00903 | 10979 ft | 283 kts | 81° |
| 2026-05-08 14:06 | 33.85578 | -83.98567 | 10983 ft | 283 kts | 81° |
| 2026-05-08 14:07 | 33.85814 | -83.96223 | 10979 ft | 283 kts | 80° |
| 2026-05-08 14:07 | 33.86053 | -83.93866 | 10980 ft | 283 kts | 80° |
| 2026-05-08 14:07 | 33.86290 | -83.91529 | 10979 ft | 283 kts | 80° |
| 2026-05-08 14:07 | 33.86530 | -83.89177 | 10983 ft | 283 kts | 81° |
| 2026-05-08 14:08 | 33.86760 | -83.86849 | 10985 ft | 282 kts | 80° |
| 2026-05-08 14:08 | 33.86995 | -83.84492 | 10985 ft | 282 kts | 80° |
| 2026-05-08 14:08 | 33.87232 | -83.82161 | 10987 ft | 282 kts | 81° |
| 2026-05-08 14:08 | 33.87474 | -83.79826 | 10986 ft | 282 kts | 77° |
| 2026-05-08 14:09 | 33.87830 | -83.77515 | 10985 ft | 281 kts | 76° |
| 2026-05-08 14:09 | 33.88196 | -83.75193 | 11012 ft | 287 kts | 76° |
| 2026-05-08 14:09 | 33.88645 | -83.72828 | 11194 ft | 292 kts | 63° |
| 2026-05-08 14:09 | 33.89430 | -83.70539 | 11444 ft | 296 kts | 62° |
| 2026-05-08 14:10 | 33.90261 | -83.68263 | 11671 ft | 300 kts | 61° |
| 2026-05-08 14:10 | 33.91116 | -83.65971 | 11890 ft | 303 kts | 60° |
| 2026-05-08 14:10 | 33.91982 | -83.63671 | 12153 ft | 304 kts | 60° |
| 2026-05-08 14:10 | 33.92863 | -83.61347 | 12493 ft | 302 kts | 60° |
| 2026-05-08 14:11 | 33.93720 | -83.59084 | 12822 ft | 301 kts | 60° |
| 2026-05-08 14:11 | 33.94599 | -83.56773 | 12970 ft | 308 kts | 60° |
| 2026-05-08 14:11 | 33.95502 | -83.54392 | 12994 ft | 317 kts | 60° |
| 2026-05-08 14:11 | 33.96412 | -83.51984 | 12993 ft | 314 kts | 60° |
| 2026-05-08 14:12 | 33.97315 | -83.49601 | 12989 ft | 311 kts | 60° |
| 2026-05-08 14:12 | 33.98207 | -83.47240 | 12992 ft | 309 kts | 60° |
| 2026-05-08 14:12 | 33.99093 | -83.44897 | 12994 ft | 307 kts | 60° |
| 2026-05-08 14:12 | 33.99974 | -83.42561 | 12995 ft | 306 kts | 60° |
| 2026-05-08 14:13 | 34.00855 | -83.40234 | 12998 ft | 304 kts | 60° |
| 2026-05-08 14:13 | 34.01732 | -83.37916 | 12997 ft | 304 kts | 60° |
| 2026-05-08 14:13 | 34.02599 | -83.35613 | 12996 ft | 303 kts | 60° |
| 2026-05-08 14:13 | 34.03467 | -83.33313 | 12988 ft | 303 kts | 61° |
| 2026-05-08 14:14 | 34.04333 | -83.31007 | 12984 ft | 302 kts | 61° |
| 2026-05-08 14:14 | 34.05203 | -83.28693 | 12985 ft | 301 kts | 61° |
| 2026-05-08 14:14 | 34.06057 | -83.26412 | 12989 ft | 301 kts | 60° |
| 2026-05-08 14:14 | 34.06923 | -83.24116 | 12984 ft | 300 kts | 60° |
| 2026-05-08 14:15 | 34.07784 | -83.21820 | 12990 ft | 300 kts | 60° |
| 2026-05-08 14:15 | 34.08650 | -83.19511 | 12985 ft | 300 kts | 60° |
| 2026-05-08 14:15 | 34.09504 | -83.17230 | 12984 ft | 300 kts | 60° |
| 2026-05-08 14:15 | 34.10361 | -83.14947 | 12987 ft | 300 kts | 60° |
| 2026-05-08 14:16 | 34.11217 | -83.12659 | 12991 ft | 300 kts | 60° |
| 2026-05-08 14:16 | 34.12082 | -83.10351 | 12988 ft | 300 kts | 60° |
| 2026-05-08 14:16 | 34.12934 | -83.08068 | 12991 ft | 301 kts | 60° |
| 2026-05-08 14:16 | 34.13790 | -83.05778 | 12994 ft | 301 kts | 60° |
| 2026-05-08 14:17 | 34.14652 | -83.03467 | 12993 ft | 301 kts | 60° |
| 2026-05-08 14:17 | 34.15506 | -83.01178 | 12996 ft | 301 kts | 60° |
| 2026-05-08 14:17 | 34.16365 | -82.98872 | 12996 ft | 301 kts | 60° |
| 2026-05-08 14:17 | 34.17218 | -82.96589 | 12995 ft | 301 kts | 60° |
| 2026-05-08 14:18 | 34.18080 | -82.94268 | 12995 ft | 301 kts | 60° |
| 2026-05-08 14:18 | 34.18933 | -82.91974 | 12994 ft | 301 kts | 60° |
| 2026-05-08 14:18 | 34.19797 | -82.89648 | 12994 ft | 301 kts | 60° |
| 2026-05-08 14:18 | 34.20648 | -82.87356 | 12993 ft | 301 kts | 60° |
| 2026-05-08 14:19 | 34.21504 | -82.85055 | 12995 ft | 301 kts | 60° |
| 2026-05-08 14:19 | 34.22370 | -82.82723 | 12995 ft | 302 kts | 60° |
| 2026-05-08 14:19 | 34.23219 | -82.80430 | 12991 ft | 301 kts | 60° |
| 2026-05-08 14:19 | 34.24069 | -82.78130 | 12990 ft | 301 kts | 60° |
| 2026-05-08 14:20 | 34.24926 | -82.75820 | 12991 ft | 301 kts | 60° |
| 2026-05-08 14:20 | 34.25779 | -82.73514 | 12990 ft | 301 kts | 60° |
| 2026-05-08 14:20 | 34.26633 | -82.71199 | 12989 ft | 301 kts | 60° |
| 2026-05-08 14:20 | 34.27486 | -82.68893 | 12989 ft | 301 kts | 60° |
| 2026-05-08 14:21 | 34.28339 | -82.66585 | 12985 ft | 301 kts | 60° |
| 2026-05-08 14:21 | 34.29189 | -82.64274 | 12988 ft | 301 kts | 60° |
| 2026-05-08 14:21 | 34.30033 | -82.61984 | 12993 ft | 301 kts | 60° |
| 2026-05-08 14:21 | 34.30886 | -82.59673 | 12985 ft | 301 kts | 60° |
| 2026-05-08 14:22 | 34.31737 | -82.57365 | 12988 ft | 301 kts | 60° |
| 2026-05-08 14:22 | 34.32589 | -82.55039 | 12984 ft | 301 kts | 60° |
| 2026-05-08 14:22 | 34.33432 | -82.52753 | 12987 ft | 301 kts | 60° |
| 2026-05-08 14:22 | 34.34286 | -82.50417 | 12986 ft | 301 kts | 60° |
| 2026-05-08 14:23 | 34.35137 | -82.48110 | 12988 ft | 302 kts | 60° |
| 2026-05-08 14:23 | 34.35984 | -82.45795 | 12985 ft | 302 kts | 60° |
| 2026-05-08 14:23 | 34.36828 | -82.43491 | 12987 ft | 302 kts | 60° |
| 2026-05-08 14:23 | 34.37680 | -82.41168 | 12985 ft | 302 kts | 60° |
| 2026-05-08 14:24 | 34.38528 | -82.38854 | 12978 ft | 302 kts | 60° |
| 2026-05-08 14:24 | 34.39388 | -82.36503 | 12972 ft | 302 kts | 60° |
| 2026-05-08 14:24 | 34.40229 | -82.34197 | 12972 ft | 303 kts | 61° |
| 2026-05-08 14:24 | 34.41086 | -82.31847 | 12967 ft | 302 kts | 61° |
| 2026-05-08 14:25 | 34.41930 | -82.29533 | 12963 ft | 302 kts | 61° |
| 2026-05-08 14:25 | 34.42776 | -82.27214 | 12961 ft | 301 kts | 61° |
| 2026-05-08 14:25 | 34.43619 | -82.24899 | 12962 ft | 301 kts | 61° |
| 2026-05-08 14:25 | 34.44466 | -82.22577 | 12963 ft | 301 kts | 61° |
| 2026-05-08 14:26 | 34.45312 | -82.20255 | 12968 ft | 301 kts | 61° |
| 2026-05-08 14:26 | 34.46150 | -82.17951 | 12978 ft | 301 kts | 61° |
| 2026-05-08 14:26 | 34.46993 | -82.15624 | 12970 ft | 301 kts | 61° |
| 2026-05-08 14:26 | 34.47831 | -82.13316 | 12965 ft | 301 kts | 61° |
| 2026-05-08 14:27 | 34.48676 | -82.10994 | 12965 ft | 301 kts | 61° |
| 2026-05-08 14:27 | 34.49519 | -82.08662 | 12987 ft | 301 kts | 61° |
| 2026-05-08 14:27 | 34.50364 | -82.06338 | 12963 ft | 301 kts | 61° |
| 2026-05-08 14:27 | 34.51196 | -82.04040 | 12967 ft | 301 kts | 61° |
| 2026-05-08 14:28 | 34.52040 | -82.01698 | 12984 ft | 301 kts | 61° |
| 2026-05-08 14:28 | 34.52880 | -81.99377 | 12975 ft | 301 kts | 61° |
| 2026-05-08 14:28 | 34.53709 | -81.97083 | 12978 ft | 301 kts | 61° |
| 2026-05-08 14:28 | 34.54560 | -81.94729 | 12977 ft | 301 kts | 61° |
| 2026-05-08 14:29 | 34.55392 | -81.92421 | 12972 ft | 301 kts | 61° |
| 2026-05-08 14:29 | 34.56231 | -81.90093 | 12975 ft | 300 kts | 61° |
| 2026-05-08 14:29 | 34.57056 | -81.87788 | 12871 ft | 297 kts | 60° |
| 2026-05-08 14:29 | 34.57871 | -81.85531 | 12516 ft | 294 kts | 61° |
| 2026-05-08 14:30 | 34.58695 | -81.83246 | 11994 ft | 294 kts | 61° |
| 2026-05-08 14:30 | 34.59512 | -81.80976 | 11535 ft | 291 kts | 62° |
| 2026-05-08 14:30 | 34.60318 | -81.78737 | 11081 ft | 289 kts | 62° |
| 2026-05-08 14:30 | 34.61111 | -81.76522 | 10660 ft | 286 kts | 62° |
| 2026-05-08 14:31 | 34.61900 | -81.74323 | 10219 ft | 284 kts | 62° |
| 2026-05-08 14:31 | 34.62672 | -81.72167 | 9828 ft | 280 kts | 62° |
| 2026-05-08 14:31 | 34.63451 | -81.69991 | 9413 ft | 278 kts | 62° |
| 2026-05-08 14:32 | 34.64961 | -81.65772 | 8696 ft | 270 kts | 63° |
| 2026-05-08 14:32 | 34.65621 | -81.63655 | 8297 ft | 270 kts | 73° |
| 2026-05-08 14:32 | 34.66111 | -81.61498 | 7955 ft | 265 kts | 72° |
| 2026-05-08 14:32 | 34.66595 | -81.59351 | 7619 ft | 261 kts | 72° |
| 2026-05-08 14:33 | 34.67065 | -81.57239 | 7242 ft | 259 kts | 73° |
| 2026-05-08 14:33 | 34.67530 | -81.55155 | 7010 ft | 251 kts | 72° |
| 2026-05-08 14:33 | 34.67976 | -81.53148 | 6963 ft | 238 kts | 73° |
| 2026-05-08 14:33 | 34.68392 | -81.51266 | 6962 ft | 227 kts | 72° |
| 2026-05-08 14:34 | 34.68795 | -81.49457 | 6962 ft | 221 kts | 72° |
| 2026-05-08 14:34 | 34.69195 | -81.47656 | 6968 ft | 217 kts | 72° |
| 2026-05-08 14:34 | 34.69580 | -81.45908 | 6968 ft | 214 kts | 72° |
| 2026-05-08 14:34 | 34.69967 | -81.44169 | 6971 ft | 212 kts | 72° |
| 2026-05-08 14:35 | 34.70349 | -81.42439 | 6969 ft | 211 kts | 72° |
| 2026-05-08 14:35 | 34.70731 | -81.40723 | 6973 ft | 210 kts | 72° |
| 2026-05-08 14:35 | 34.71114 | -81.38989 | 6979 ft | 219 kts | 72° |
| 2026-05-08 14:35 | 34.71520 | -81.37170 | 6985 ft | 228 kts | 72° |
| 2026-05-08 14:36 | 34.71937 | -81.35272 | 6982 ft | 233 kts | 72° |
| 2026-05-08 14:36 | 34.72361 | -81.33353 | 6976 ft | 236 kts | 73° |
| 2026-05-08 14:36 | 34.72788 | -81.31413 | 6978 ft | 238 kts | 73° |
| 2026-05-08 14:36 | 34.73215 | -81.29476 | 6978 ft | 239 kts | 73° |
| 2026-05-08 14:37 | 34.73645 | -81.27525 | 6981 ft | 240 kts | 73° |
| 2026-05-08 14:37 | 34.74077 | -81.25549 | 6982 ft | 240 kts | 73° |
| 2026-05-08 14:37 | 34.74509 | -81.23585 | 6978 ft | 238 kts | 73° |
| 2026-05-08 14:37 | 34.74929 | -81.21669 | 6976 ft | 235 kts | 73° |
| 2026-05-08 14:38 | 34.75350 | -81.19759 | 6977 ft | 232 kts | 73° |
| 2026-05-08 14:38 | 34.75761 | -81.17884 | 6978 ft | 230 kts | 73° |
| 2026-05-08 14:38 | 34.76172 | -81.16006 | 6977 ft | 229 kts | 72° |
| 2026-05-08 14:38 | 34.76605 | -81.14131 | 6975 ft | 226 kts | 66° |
| 2026-05-08 14:39 | 34.77562 | -81.12678 | 6982 ft | 220 kts | 44° |
| 2026-05-08 14:39 | 34.78611 | -81.11343 | 6983 ft | 219 kts | 43° |
| 2026-05-08 14:39 | 34.79663 | -81.10014 | 6984 ft | 219 kts | 43° |
| 2026-05-08 14:39 | 34.80729 | -81.08669 | 6979 ft | 220 kts | 42° |
| 2026-05-08 14:40 | 34.81788 | -81.07317 | 6977 ft | 220 kts | 43° |
| 2026-05-08 14:40 | 34.82844 | -81.05977 | 6978 ft | 219 kts | 42° |
| 2026-05-08 14:40 | 34.83901 | -81.04630 | 6977 ft | 219 kts | 42° |
| 2026-05-08 14:40 | 34.84952 | -81.03286 | 6979 ft | 218 kts | 43° |
| 2026-05-08 14:41 | 34.86000 | -81.01954 | 6981 ft | 218 kts | 42° |
| 2026-05-08 14:41 | 34.87044 | -81.00626 | 6978 ft | 218 kts | 42° |
| 2026-05-08 14:41 | 34.88092 | -80.99294 | 6977 ft | 218 kts | 43° |
| 2026-05-08 14:41 | 34.89146 | -80.97963 | 6977 ft | 218 kts | 43° |
| 2026-05-08 14:42 | 34.90186 | -80.96659 | 7008 ft | 206 kts | 42° |
| 2026-05-08 14:42 | 34.91165 | -80.95422 | 6719 ft | 207 kts | 42° |
| 2026-05-08 14:42 | 34.92186 | -80.94163 | 6322 ft | 209 kts | 43° |
| 2026-05-08 14:42 | 34.93197 | -80.92940 | 6089 ft | 203 kts | 42° |
| 2026-05-08 14:43 | 34.94200 | -80.91707 | 5779 ft | 203 kts | 42° |
| 2026-05-08 14:43 | 34.95181 | -80.90505 | 5483 ft | 201 kts | 42° |
| 2026-05-08 14:43 | 34.96167 | -80.89315 | 5201 ft | 199 kts | 42° |
| 2026-05-08 14:43 | 34.97147 | -80.88141 | 4911 ft | 197 kts | 42° |
| 2026-05-08 14:44 | 34.98112 | -80.86986 | 4661 ft | 188 kts | 42° |
| 2026-05-08 14:44 | 34.99048 | -80.85878 | 4235 ft | 189 kts | 43° |
| 2026-05-08 14:44 | 34.99991 | -80.84785 | 3843 ft | 187 kts | 42° |
| 2026-05-08 14:44 | 35.00967 | -80.83679 | 3471 ft | 198 kts | 42° |
| 2026-05-08 14:45 | 35.01996 | -80.82526 | 3293 ft | 192 kts | 42° |
| 2026-05-08 14:45 | 35.02934 | -80.81466 | 3050 ft | 188 kts | 42° |
| 2026-05-08 14:45 | 35.03890 | -80.80394 | 2988 ft | 183 kts | 42° |
| 2026-05-08 14:45 | 35.04812 | -80.79351 | 2968 ft | 179 kts | 42° |
| 2026-05-08 14:46 | 35.05717 | -80.78326 | 2974 ft | 174 kts | 41° |
| 2026-05-08 14:46 | 35.06611 | -80.77316 | 2973 ft | 175 kts | 42° |
| 2026-05-08 14:46 | 35.07497 | -80.76318 | 2981 ft | 174 kts | 42° |
| 2026-05-08 14:46 | 35.08519 | -80.75575 | 2977 ft | 175 kts | 11° |
| 2026-05-08 14:47 | 35.09713 | -80.75294 | 2982 ft | 174 kts | 12° |
| 2026-05-08 14:47 | 35.10916 | -80.75011 | 2978 ft | 175 kts | 12° |
| 2026-05-08 14:47 | 35.12118 | -80.74728 | 2977 ft | 176 kts | 12° |
| 2026-05-08 14:47 | 35.13325 | -80.74440 | 2977 ft | 176 kts | 12° |
| 2026-05-08 14:48 | 35.14534 | -80.74152 | 2980 ft | 177 kts | 12° |
| 2026-05-08 14:48 | 35.15746 | -80.73860 | 2976 ft | 177 kts | 12° |
| 2026-05-08 14:48 | 35.16955 | -80.73566 | 2975 ft | 177 kts | 12° |
| 2026-05-08 14:48 | 35.18137 | -80.73283 | 3166 ft | 163 kts | 12° |
| 2026-05-08 14:49 | 35.19259 | -80.73026 | 3112 ft | 163 kts | 11° |
| 2026-05-08 14:49 | 35.20394 | -80.72983 | 3035 ft | 167 kts | 357° |
| 2026-05-08 14:49 | 35.21569 | -80.73128 | 2899 ft | 163 kts | 356° |
| 2026-05-08 14:49 | 35.22704 | -80.73292 | 2778 ft | 156 kts | 355° |
| 2026-05-08 14:50 | 35.23745 | -80.73408 | 2598 ft | 149 kts | 358° |
| 2026-05-08 14:50 | 35.24793 | -80.73517 | 2316 ft | 152 kts | 358° |
| 2026-05-08 14:50 | 35.25785 | -80.73555 | 2387 ft | 131 kts | 2° |
| 2026-05-08 14:50 | 35.26655 | -80.73531 | 2464 ft | 121 kts | 3° |
| 2026-05-08 14:51 | 35.27516 | -80.73459 | 2357 ft | 127 kts | 9° |
| 2026-05-08 14:51 | 35.28405 | -80.73254 | 2263 ft | 133 kts | 12° |
| 2026-05-08 14:51 | 35.29283 | -80.73061 | 2145 ft | 121 kts | 12° |
| 2026-05-08 14:51 | 35.30109 | -80.72874 | 1954 ft | 119 kts | 11° |
| 2026-05-08 14:52 | 35.30927 | -80.72697 | 1807 ft | 119 kts | 14° |
| 2026-05-08 14:52 | 35.32545 | -80.72325 | 1598 ft | 114 kts | 11° |
| 2026-05-08 14:52 | 35.33312 | -80.72159 | 1509 ft | 113 kts | 12° |
| 2026-05-08 14:53 | 35.34080 | -80.71973 | 1415 ft | 113 kts | 13° |
| 2026-05-08 14:53 | 35.34874 | -80.71799 | 1269 ft | 116 kts | 12° |
| 2026-05-08 14:53 | 35.35647 | -80.71619 | 1101 ft | 108 kts | 11° |
| 2026-05-08 14:53 | 35.36370 | -80.71458 | 942 ft | 102 kts | 12° |
| 2026-05-08 14:54 | 35.37048 | -80.71308 | 807 ft | 95 kts | 12° |
| 2026-05-08 14:54 | 35.37685 | -80.71162 | 673 ft | 90 kts | 11° |
| 2026-05-08 14:54 | 35.38242 | -80.71036 | 641 ft | 68 kts | 10° |
| 2026-05-08 14:54 | 35.38486 | -80.70981 | 653 ft | 13 kts | 354° |
| 2026-05-08 14:55 | 35.38530 | -80.71036 | 655 ft | 8 kts | 281° |
| 2026-05-08 14:55 | 35.38537 | -80.71077 | 654 ft | 0 kts | 276° |
| 2026-05-08 14:56 | 35.38494 | -80.71117 | 652 ft | 10 kts | 195° |
| 2026-05-08 14:56 | 35.38406 | -80.71137 | 647 ft | 16 kts | 190° |
| 2026-05-08 14:56 | 35.38280 | -80.71165 | 641 ft | 20 kts | 188° |
| 2026-05-08 14:56 | 35.38135 | -80.71200 | 633 ft | 16 kts | 187° |
| 2026-05-08 14:57 | 35.38100 | -80.71275 | 630 ft | 10 kts | 277° |